Time;durP1;ratioP1;P1;durP2;ratioP2;P2;SDS_P1;SDS_P2;PMS_P1;PMS_P2;Temp;Humidity;BMP_temperature;BMP_pressure;BME280_temperature;BME280_humidity;BME280_pressure;Samples;Min_cycle;Max_cycle;Signal;HPM_P1;HPM_P2
2022/05/20 00:01:21;;;;;;;8.80;5.70;;;;;;;;;;5096519;28;20471;-74
2022/05/20 00:03:48;;;;;;;7.50;4.97;;;;;;;;;;5096821;28;20454;-74
2022/05/20 00:06:15;;;;;;;6.10;5.50;;;;;;;;;;5096799;28;20447;-74
2022/05/20 00:08:44;;;;;;;7.57;6.30;;;;;;;;;;5098099;28;20446;-74
2022/05/20 00:11:11;;;;;;;7.57;5.57;;;;;;;;;;5096646;28;20925;-74
2022/05/20 00:13:38;;;;;;;13.20;7.20;;;;;;;;;;5096650;28;20928;-74
2022/05/20 00:16:06;;;;;;;8.00;5.00;;;;;;;;;;5096556;28;20493;-74
2022/05/20 00:18:33;;;;;;;16.50;6.93;;;;;;;;;;5096557;28;20438;-74
2022/05/20 00:21:00;;;;;;;10.97;6.50;;;;;;;;;;5096180;28;20478;-74
2022/05/20 00:23:27;;;;;;;10.43;6.80;;;;;;;;;;5096238;28;20952;-75
2022/05/20 00:25:55;;;;;;;12.17;6.10;;;;;;;;;;5096167;28;20446;-75
2022/05/20 00:28:24;;;;;;;11.77;7.50;;;;;;;;;;5096403;28;20447;-74
2022/05/20 00:30:51;;;;;;;7.90;7.03;;;;;;;;;;5095923;28;20481;-73
2022/05/20 00:33:19;;;;;;;12.10;6.80;;;;;;;;;;5096274;28;20457;-74
2022/05/20 00:35:46;;;;;;;7.60;6.90;;;;;;;;;;5095770;28;20491;-74
2022/05/20 00:38:13;;;;;;;7.20;6.13;;;;;;;;;;5096236;28;20447;-74
2022/05/20 00:40:41;;;;;;;13.30;7.10;;;;;;;;;;5096064;28;20828;-74
2022/05/20 00:43:15;;;;;;;11.63;7.50;;;;;;;;;;5096133;28;20458;-74
2022/05/20 00:45:42;;;;;;;14.07;7.60;;;;;;;;;;5096104;28;20439;-74
2022/05/20 00:48:09;;;;;;;11.77;8.03;;;;;;;;;;5096092;28;20455;-74
2022/05/20 00:50:39;;;;;;;8.60;7.73;;;;;;;;;;5095780;28;20474;-74
2022/05/20 00:53:07;;;;;;;9.80;7.30;;;;;;;;;;5095929;28;20503;-74
2022/05/20 00:55:34;;;;;;;9.93;7.33;;;;;;;;;;5095785;28;20948;-74
2022/05/20 00:58:04;;;;;;;9.80;7.73;;;;;;;;;;5095493;28;20507;-73
2022/05/20 01:00:34;;;;;;;9.90;7.53;;;;;;;;;;5095398;28;20510;-73
2022/05/20 01:03:03;;;;;;;9.10;7.13;;;;;;;;;;5095694;28;20454;-73
2022/05/20 01:05:32;;;;;;;10.47;6.97;;;;;;;;;;5095697;28;20450;-73
2022/05/20 01:07:59;;;;;;;11.27;8.13;;;;;;;;;;5095699;28;20950;-73
2022/05/20 01:10:27;;;;;;;9.63;7.50;;;;;;;;;;5095543;28;20467;-73
2022/05/20 01:12:54;;;;;;;9.33;7.27;;;;;;;;;;5095284;28;20457;-73
2022/05/20 01:15:21;;;;;;;11.37;8.70;;;;;;;;;;5095155;28;20446;-73
2022/05/20 01:17:51;;;;;;;12.57;8.10;;;;;;;;;;5095413;28;20489;-73
2022/05/20 01:20:19;;;;;;;11.77;9.53;;;;;;;;;;5095411;28;20478;-73
2022/05/20 01:23:00;;;;;;;9.93;8.20;;;;;;;;;;5095263;28;20451;-73
2022/05/20 01:25:29;;;;;;;14.17;8.20;;;;;;;;;;5095358;28;20474;-73
2022/05/20 01:27:56;;;;;;;8.80;7.90;;;;;;;;;;5095244;28;20534;-73
2022/05/20 01:30:25;;;;;;;8.13;7.43;;;;;;;;;;5094833;28;20474;-73
2022/05/20 01:32:52;;;;;;;9.73;8.47;;;;;;;;;;5095110;28;20932;-74
2022/05/20 01:35:23;;;;;;;10.40;7.50;;;;;;;;;;5095095;28;20458;-73
2022/05/20 01:37:51;;;;;;;9.37;8.47;;;;;;;;;;5094748;28;20478;-73
2022/05/20 01:40:18;;;;;;;9.17;7.40;;;;;;;;;;5095005;28;21018;-73
2022/05/20 01:42:48;;;;;;;7.93;7.23;;;;;;;;;;5094994;28;20455;-73
2022/05/20 01:45:17;;;;;;;8.77;7.87;;;;;;;;;;5094243;28;20435;-73
2022/05/20 01:47:47;;;;;;;7.90;6.77;;;;;;;;;;5094745;28;20809;-73
2022/05/20 01:50:17;;;;;;;11.30;7.70;;;;;;;;;;5094402;28;20482;-73
2022/05/20 01:52:47;;;;;;;9.77;7.57;;;;;;;;;;5094759;28;20821;-73
2022/05/20 01:55:17;;;;;;;8.30;7.40;;;;;;;;;;5094798;28;20798;-73
2022/05/20 01:57:48;;;;;;;9.27;6.67;;;;;;;;;;5094614;28;20509;-74
2022/05/20 02:00:18;;;;;;;7.80;6.80;;;;;;;;;;5094266;28;20481;-74
2022/05/20 02:02:48;;;;;;;7.70;6.23;;;;;;;;;;5094552;28;20440;-73
2022/05/20 02:05:17;;;;;;;7.50;6.70;;;;;;;;;;5094552;28;20857;-73
2022/05/20 02:07:46;;;;;;;22.00;7.07;;;;;;;;;;5094137;28;20447;-73
2022/05/20 02:10:17;;;;;;;7.07;6.30;;;;;;;;;;5094091;28;20479;-73
2022/05/20 02:12:48;;;;;;;8.40;6.17;;;;;;;;;;5094451;28;20916;-73
2022/05/20 02:15:18;;;;;;;8.03;7.23;;;;;;;;;;5094364;28;20446;-73
2022/05/20 02:17:47;;;;;;;7.20;6.23;;;;;;;;;;5093927;28;20596;-73
2022/05/20 02:20:16;;;;;;;7.00;6.30;;;;;;;;;;5094116;28;20470;-74
2022/05/20 02:22:46;;;;;;;10.37;7.57;;;;;;;;;;5094017;28;20948;-73
2022/05/20 02:25:15;;;;;;;9.50;7.17;;;;;;;;;;5094241;28;20501;-73
2022/05/20 02:27:43;;;;;;;14.73;8.17;;;;;;;;;;5093779;28;20455;-73
2022/05/20 02:30:14;;;;;;;12.93;7.57;;;;;;;;;;5094052;28;20475;-73
2022/05/20 02:32:45;;;;;;;9.23;6.83;;;;;;;;;;5094098;28;20826;-73
2022/05/20 02:35:13;;;;;;;7.10;6.40;;;;;;;;;;5093714;28;20435;-73
2022/05/20 02:37:40;;;;;;;9.97;7.10;;;;;;;;;;5093899;28;20486;-73
2022/05/20 02:40:09;;;;;;;10.17;7.97;;;;;;;;;;5093790;28;20474;-73
2022/05/20 02:42:36;;;;;;;8.60;7.50;;;;;;;;;;5093894;28;20948;-73
2022/05/20 02:45:03;;;;;;;10.20;8.27;;;;;;;;;;5093829;28;20462;-73
2022/05/20 02:47:32;;;;;;;9.83;6.70;;;;;;;;;;5093822;28;20810;-73
2022/05/20 02:50:00;;;;;;;6.70;5.77;;;;;;;;;;5093806;28;20979;-73
2022/05/20 02:52:27;;;;;;;6.67;5.53;;;;;;;;;;5093427;28;20461;-73
2022/05/20 02:54:54;;;;;;;8.37;6.10;;;;;;;;;;5093432;28;20455;-73
2022/05/20 02:57:21;;;;;;;10.43;7.77;;;;;;;;;;5092760;28;20944;-73
2022/05/20 03:05:19;;;;;;;7.70;6.43;;;;;;;;;;5093674;28;20409;-73
2022/05/20 03:07:46;;;;;;;5.57;5.00;;;;;;;;;;5093624;28;20812;-73
2022/05/20 03:10:14;;;;;;;5.40;4.90;;;;;;;;;;5093405;28;20474;-73
2022/05/20 03:12:41;;;;;;;6.13;5.40;;;;;;;;;;5093573;28;20477;-73
2022/05/20 03:15:11;;;;;;;9.53;4.87;;;;;;;;;;5093557;28;20970;-73
2022/05/20 03:17:39;;;;;;;6.23;5.53;;;;;;;;;;5093407;28;20487;-73
2022/05/20 03:20:08;;;;;;;11.23;4.50;;;;;;;;;;5093114;28;20473;-73
2022/05/20 03:22:36;;;;;;;8.40;5.10;;;;;;;;;;5093371;28;20451;-73
2022/05/20 03:25:04;;;;;;;7.53;5.73;;;;;;;;;;5093155;28;20446;-73
2022/05/20 03:27:31;;;;;;;9.20;7.70;;;;;;;;;;5093496;28;20486;-73
2022/05/20 03:29:58;;;;;;;8.10;5.43;;;;;;;;;;5093234;28;20482;-73
2022/05/20 03:32:25;;;;;;;5.47;4.97;;;;;;;;;;5093343;28;20482;-73
2022/05/20 03:34:56;;;;;;;5.50;4.57;;;;;;;;;;5092983;28;20455;-73
2022/05/20 03:37:24;;;;;;;8.33;6.10;;;;;;;;;;5093264;28;20470;-73
2022/05/20 03:39:51;;;;;;;6.70;5.87;;;;;;;;;;5093228;28;20482;-73
2022/05/20 03:42:19;;;;;;;6.70;4.43;;;;;;;;;;5093232;28;20841;-74
2022/05/20 03:44:46;;;;;;;7.17;4.03;;;;;;;;;;5093194;28;20975;-73
2022/05/20 03:47:13;;;;;;;5.00;4.30;;;;;;;;;;5093200;28;20458;-73
2022/05/20 03:49:42;;;;;;;6.73;5.20;;;;;;;;;;5092877;28;20478;-73
2022/05/20 03:52:10;;;;;;;4.63;4.20;;;;;;;;;;5093155;28;20451;-73
2022/05/20 03:54:37;;;;;;;5.33;4.80;;;;;;;;;;5092852;28;20453;-73
2022/05/20 03:57:05;;;;;;;13.97;9.87;;;;;;;;;;5093025;28;20482;-73
2022/05/20 03:59:35;;;;;;;6.40;5.07;;;;;;;;;;5093045;28;20975;-73
2022/05/20 04:02:02;;;;;;;5.80;5.20;;;;;;;;;;5093091;28;20756;-73
2022/05/20 04:04:31;;;;;;;6.13;4.50;;;;;;;;;;5093070;28;20454;-73
2022/05/20 04:06:58;;;;;;;9.90;4.13;;;;;;;;;;5093061;28;20516;-73
2022/05/20 04:09:27;;;;;;;3.70;3.40;;;;;;;;;;5094203;28;20470;-73
2022/05/20 04:11:56;;;;;;;4.23;3.83;;;;;;;;;;5096685;28;20446;-73
2022/05/20 04:14:23;;;;;;;6.70;3.83;;;;;;;;;;5096645;28;20454;-73
2022/05/20 04:16:55;;;;;;;5.07;3.90;;;;;;;;;;5096563;28;20483;-73
2022/05/20 04:19:22;;;;;;;4.20;3.70;;;;;;;;;;5096257;28;20512;-73
2022/05/20 04:21:50;;;;;;;3.57;3.27;;;;;;;;;;5096230;28;20500;-73
2022/05/20 04:24:17;;;;;;;3.30;3.03;;;;;;;;;;5096083;28;20979;-73
2022/05/20 04:26:46;;;;;;;2.70;2.50;;;;;;;;;;5096476;28;20856;-73
2022/05/20 04:29:13;;;;;;;5.30;3.67;;;;;;;;;;5096338;28;20458;-73
2022/05/20 04:31:42;;;;;;;3.73;2.80;;;;;;;;;;5096421;28;20454;-74
2022/05/20 04:34:09;;;;;;;2.53;1.90;;;;;;;;;;5096316;28;20458;-74
2022/05/20 04:36:36;;;;;;;4.60;4.20;;;;;;;;;;5096195;28;20477;-73
2022/05/20 04:39:03;;;;;;;3.57;3.27;;;;;;;;;;5095785;28;20455;-73
2022/05/20 04:47:03;;;;;;;2.40;2.20;;;;;;;;;;5095819;28;20410;-74
2022/05/20 04:49:31;;;;;;;6.13;2.30;;;;;;;;;;5095968;28;20482;-74
2022/05/20 04:52:00;;;;;;;4.30;2.60;;;;;;;;;;5095690;28;20451;-74
2022/05/20 04:57:18;;;;;;;3.07;2.47;;;;;;;;;;5095595;28;20613;-74
2022/05/20 04:59:47;;;;;;;6.40;3.90;;;;;;;;;;5095756;28;20478;-74
2022/05/20 05:02:14;;;;;;;3.50;2.30;;;;;;;;;;5095483;28;20450;-74
2022/05/20 05:04:41;;;;;;;6.43;2.20;;;;;;;;;;5095722;28;20451;-74
2022/05/20 05:07:09;;;;;;;2.13;1.93;;;;;;;;;;5095723;28;20474;-74
2022/05/20 05:09:37;;;;;;;2.10;1.90;;;;;;;;;;5095627;28;20544;-74
2022/05/20 05:12:04;;;;;;;2.13;1.80;;;;;;;;;;5095525;28;20461;-74
2022/05/20 05:14:36;;;;;;;4.43;4.03;;;;;;;;;;5095504;28;20457;-74
2022/05/20 05:17:06;;;;;;;4.03;3.57;;;;;;;;;;5095517;28;20438;-74
2022/05/20 05:19:35;;;;;;;5.17;2.30;;;;;;;;;;5095437;28;20838;-75
2022/05/20 05:22:02;;;;;;;8.43;2.00;;;;;;;;;;5094112;28;20511;-75
2022/05/20 05:24:30;;;;;;;4.50;2.13;;;;;;;;;;5095028;28;20979;-75
2022/05/20 05:26:57;;;;;;;7.97;4.07;;;;;;;;;;5094974;28;20454;-75
2022/05/20 05:29:24;;;;;;;6.50;4.70;;;;;;;;;;5095164;28;20998;-75
2022/05/20 05:31:51;;;;;;;2.57;2.03;;;;;;;;;;5095249;28;20477;-75
2022/05/20 05:34:19;;;;;;;3.70;3.40;;;;;;;;;;5095184;28;21045;-75
2022/05/20 05:36:47;;;;;;;2.57;1.90;;;;;;;;;;5095107;28;20456;-75
2022/05/20 05:39:14;;;;;;;2.47;2.07;;;;;;;;;;5094926;28;21021;-75
2022/05/20 05:41:41;;;;;;;2.23;2.03;;;;;;;;;;5094991;28;20454;-75
2022/05/20 05:44:08;;;;;;;3.33;1.80;;;;;;;;;;5095001;28;20457;-75
2022/05/20 05:46:35;;;;;;;2.47;2.17;;;;;;;;;;5094919;28;20450;-75
2022/05/20 05:49:03;;;;;;;2.20;1.90;;;;;;;;;;5094830;28;20446;-75
2022/05/20 05:51:31;;;;;;;2.43;1.73;;;;;;;;;;5094864;28;20798;-75
2022/05/20 05:53:58;;;;;;;2.07;1.87;;;;;;;;;;5094746;28;20939;-74
2022/05/20 05:56:26;;;;;;;3.70;2.33;;;;;;;;;;5094754;28;20461;-75
2022/05/20 05:58:53;;;;;;;2.80;2.00;;;;;;;;;;5094388;28;20473;-75
2022/05/20 06:01:20;;;;;;;9.77;2.60;;;;;;;;;;5094605;28;20474;-74
2022/05/20 06:03:47;;;;;;;3.20;2.73;;;;;;;;;;5094602;28;20470;-75
2022/05/20 06:06:14;;;;;;;2.90;1.70;;;;;;;;;;5094483;28;20451;-74
2022/05/20 06:08:42;;;;;;;2.93;2.63;;;;;;;;;;5094132;28;20529;-75
2022/05/20 06:11:09;;;;;;;4.60;3.47;;;;;;;;;;5094418;28;20470;-74
2022/05/20 06:13:36;;;;;;;11.00;2.10;;;;;;;;;;5094067;28;20454;-75
2022/05/20 06:16:04;;;;;;;3.40;1.97;;;;;;;;;;5094344;28;20965;-75
2022/05/20 06:18:31;;;;;;;6.00;2.20;;;;;;;;;;5093973;28;20470;-75
2022/05/20 06:20:58;;;;;;;6.53;4.17;;;;;;;;;;5094193;28;20470;-74
2022/05/20 06:23:26;;;;;;;2.77;2.57;;;;;;;;;;5093839;28;20469;-75
2022/05/20 06:25:54;;;;;;;4.77;2.20;;;;;;;;;;5093914;28;20446;-75
2022/05/20 06:28:21;;;;;;;4.13;2.10;;;;;;;;;;5094143;28;20943;-75
2022/05/20 06:30:49;;;;;;;2.90;1.87;;;;;;;;;;5093746;28;20477;-75
2022/05/20 06:33:16;;;;;;;3.13;2.10;;;;;;;;;;5093943;28;20450;-75
2022/05/20 06:41:13;;;;;;;2.30;1.90;;;;;;;;;;5093717;28;20441;-75
2022/05/20 06:43:40;;;;;;;2.17;1.97;;;;;;;;;;5093935;28;20950;-75
2022/05/20 06:46:10;;;;;;;2.47;1.70;;;;;;;;;;5093892;28;20449;-74
2022/05/20 06:48:38;;;;;;;2.60;2.13;;;;;;;;;;5093574;28;20446;-75
2022/05/20 06:51:05;;;;;;;4.03;2.40;;;;;;;;;;5093791;28;20506;-75
2022/05/20 06:53:33;;;;;;;3.40;2.13;;;;;;;;;;5093498;28;20457;-75
2022/05/20 06:56:00;;;;;;;3.57;2.00;;;;;;;;;;5093785;28;20450;-75
2022/05/20 06:58:28;;;;;;;2.90;2.13;;;;;;;;;;5093672;28;20839;-75
2022/05/20 07:00:55;;;;;;;2.93;1.73;;;;;;;;;;5093299;28;20472;-75
2022/05/20 07:03:22;;;;;;;7.90;2.97;;;;;;;;;;5093397;28;20222;-75
2022/05/20 07:05:50;;;;;;;6.30;2.40;;;;;;;;;;5093631;28;20794;-75
2022/05/20 07:08:17;;;;;;;4.43;2.00;;;;;;;;;;5093616;28;20482;-75
2022/05/20 07:10:44;;;;;;;3.67;1.97;;;;;;;;;;5093222;28;20470;-75
2022/05/20 07:13:11;;;;;;;5.57;2.10;;;;;;;;;;5093559;28;20235;-75
2022/05/20 07:15:39;;;;;;;1.87;1.53;;;;;;;;;;5093548;28;20211;-75
2022/05/20 07:18:07;;;;;;;2.00;1.80;;;;;;;;;;5093485;28;20658;-75
2022/05/20 07:20:34;;;;;;;2.53;1.80;;;;;;;;;;5093118;28;20238;-75
2022/05/20 07:23:01;;;;;;;7.90;1.90;;;;;;;;;;5093356;28;20223;-75
2022/05/20 07:25:28;;;;;;;2.40;2.20;;;;;;;;;;5093008;28;20438;-75
2022/05/20 07:27:58;;;;;;;2.03;1.83;;;;;;;;;;5093221;28;20804;-75
2022/05/20 07:30:25;;;;;;;3.97;2.00;;;;;;;;;;5093576;28;20511;-75
2022/05/20 07:32:54;;;;;;;2.47;1.90;;;;;;;;;;5093381;28;20499;-75
2022/05/20 07:35:21;;;;;;;2.00;1.80;;;;;;;;;;5093070;28;20442;-75
2022/05/20 07:37:50;;;;;;;1.83;1.63;;;;;;;;;;5093257;28;20438;-75
2022/05/20 07:40:17;;;;;;;2.07;1.87;;;;;;;;;;5093289;28;20474;-75
2022/05/20 07:42:44;;;;;;;2.30;1.40;;;;;;;;;;5093330;28;20220;-75
2022/05/20 07:45:12;;;;;;;2.80;2.30;;;;;;;;;;5096221;28;20207;-75
2022/05/20 07:47:39;;;;;;;3.03;2.63;;;;;;;;;;5096960;28;20212;-74
2022/05/20 07:50:08;;;;;;;3.47;2.03;;;;;;;;;;5097106;28;20231;-72
2022/05/20 07:55:24;;;;;;;2.33;1.80;;;;;;;;;;5097120;28;20183;-72
2022/05/20 07:57:52;;;;;;;2.43;1.80;;;;;;;;;;5096685;28;20208;-72
2022/05/20 08:00:20;;;;;;;3.50;2.20;;;;;;;;;;5096616;28;20228;-72
2022/05/20 08:02:47;;;;;;;1.80;1.63;;;;;;;;;;5096947;28;20458;-72
2022/05/20 08:05:18;;;;;;;3.00;1.67;;;;;;;;;;5096841;28;20453;-75
2022/05/20 08:07:46;;;;;;;2.63;1.90;;;;;;;;;;5096891;28;20435;-75
2022/05/20 08:10:15;;;;;;;2.87;2.30;;;;;;;;;;5096762;28;20473;-75
2022/05/20 08:12:42;;;;;;;3.47;3.17;;;;;;;;;;5096810;28;20935;-75
2022/05/20 08:15:10;;;;;;;2.10;1.60;;;;;;;;;;5096750;28;20450;-75
2022/05/20 08:17:40;;;;;;;2.20;2.00;;;;;;;;;;5096674;28;20499;-75
2022/05/20 08:20:09;;;;;;;4.87;2.30;;;;;;;;;;5096506;28;20489;-75
2022/05/20 08:22:37;;;;;;;2.00;1.80;;;;;;;;;;5096454;28;20470;-75
2022/05/20 08:25:05;;;;;;;2.60;1.80;;;;;;;;;;5096556;28;20785;-75
2022/05/20 08:27:33;;;;;;;4.17;1.73;;;;;;;;;;5096513;28;20539;-75
2022/05/20 08:30:04;;;;;;;2.33;2.13;;;;;;;;;;5096300;28;20469;-75
2022/05/20 08:32:31;;;;;;;3.40;2.73;;;;;;;;;;5096132;28;20434;-75
2022/05/20 08:34:58;;;;;;;2.87;1.97;;;;;;;;;;5096059;28;20454;-75
2022/05/20 08:37:26;;;;;;;2.73;2.30;;;;;;;;;;5096363;28;20680;-75
2022/05/20 08:39:54;;;;;;;3.03;2.47;;;;;;;;;;5095883;28;20572;-75
2022/05/20 08:42:23;;;;;;;3.40;2.13;;;;;;;;;;5096284;28;20935;-75
2022/05/20 08:44:50;;;;;;;7.97;2.00;;;;;;;;;;5095837;28;20462;-75
2022/05/20 08:47:22;;;;;;;2.23;2.03;;;;;;;;;;5096110;28;20468;-75
2022/05/20 08:49:50;;;;;;;3.10;1.60;;;;;;;;;;5096114;28;20997;-75
2022/05/20 08:52:17;;;;;;;2.50;2.30;;;;;;;;;;5096039;28;20450;-75
2022/05/20 08:54:44;;;;;;;8.40;6.23;;;;;;;;;;5095941;28;20569;-75
2022/05/20 08:57:17;;;;;;;2.43;2.20;;;;;;;;;;5095635;28;20446;-75
2022/05/20 08:59:44;;;;;;;3.97;3.17;;;;;;;;;;5095495;28;20493;-75
2022/05/20 09:02:11;;;;;;;2.67;2.10;;;;;;;;;;5095785;28;20450;-75
2022/05/20 09:04:38;;;;;;;3.23;2.80;;;;;;;;;;5095792;28;20461;-75
2022/05/20 09:07:06;;;;;;;2.30;2.00;;;;;;;;;;5095722;28;20465;-75
2022/05/20 09:09:41;;;;;;;3.00;2.20;;;;;;;;;;5095599;28;20473;-74
2022/05/20 09:12:09;;;;;;;2.40;2.20;;;;;;;;;;5095358;28;20441;-75
2022/05/20 09:17:23;;;;;;;3.03;2.10;;;;;;;;;;5095299;28;20531;-72
2022/05/20 09:20:00;;;;;;;2.90;2.27;;;;;;;;;;5095017;28;20481;-72
2022/05/20 09:22:28;;;;;;;2.30;2.10;;;;;;;;;;5095433;28;20502;-72
2022/05/20 09:24:55;;;;;;;1.90;1.70;;;;;;;;;;5094924;28;20983;-72
2022/05/20 09:27:28;;;;;;;4.10;2.43;;;;;;;;;;5095294;28;20450;-72
2022/05/20 09:29:58;;;;;;;4.93;2.53;;;;;;;;;;5094919;28;20470;-72
2022/05/20 09:32:26;;;;;;;4.53;2.20;;;;;;;;;;5095219;28;20860;-73
2022/05/20 09:35:02;;;;;;;2.87;2.30;;;;;;;;;;5095131;28;20814;-72
2022/05/20 09:37:30;;;;;;;2.97;1.90;;;;;;;;;;5095075;28;20515;-72
2022/05/20 09:39:57;;;;;;;4.03;2.73;;;;;;;;;;5094889;28;21024;-72
2022/05/20 09:42:26;;;;;;;3.00;2.20;;;;;;;;;;5095020;28;20452;-72
2022/05/20 09:44:54;;;;;;;3.90;2.30;;;;;;;;;;5094956;28;20545;-72
2022/05/20 09:47:25;;;;;;;3.50;2.10;;;;;;;;;;5094849;28;20511;-72
2022/05/20 09:49:54;;;;;;;3.20;2.10;;;;;;;;;;5094548;28;20461;-72
2022/05/20 09:52:24;;;;;;;3.83;2.37;;;;;;;;;;5094798;28;20848;-73
2022/05/20 09:54:57;;;;;;;4.53;3.23;;;;;;;;;;5094503;28;20208;-73
2022/05/20 09:57:28;;;;;;;2.30;2.10;;;;;;;;;;5094777;28;20204;-72
2022/05/20 09:59:57;;;;;;;2.20;2.00;;;;;;;;;;5094265;28;20485;-72
2022/05/20 10:02:30;;;;;;;4.80;3.60;;;;;;;;;;5094536;28;20453;-72
2022/05/20 10:05:00;;;;;;;3.57;2.40;;;;;;;;;;5094583;28;20438;-72
2022/05/20 10:07:35;;;;;;;2.23;2.03;;;;;;;;;;5094097;28;20434;-72
2022/05/20 10:10:05;;;;;;;3.00;2.07;;;;;;;;;;5094412;28;20462;-72
2022/05/20 10:12:34;;;;;;;3.67;2.10;;;;;;;;;;5094475;28;20892;-72
2022/05/20 10:15:04;;;;;;;2.70;2.40;;;;;;;;;;5094474;28;20449;-72
2022/05/20 10:17:41;;;;;;;8.63;2.47;;;;;;;;;;5094700;28;20454;-73
2022/05/20 10:20:12;;;;;;;3.17;2.67;;;;;;;;;;5094218;28;21016;-73
2022/05/20 10:22:43;;;;;;;3.07;2.30;;;;;;;;;;5093787;28;20443;-72
2022/05/20 10:25:13;;;;;;;2.47;2.27;;;;;;;;;;5094253;28;20430;-72
2022/05/20 10:27:47;;;;;;;2.10;1.90;;;;;;;;;;5094206;28;20434;-72
2022/05/20 10:33:04;;;;;;;4.97;2.10;;;;;;;;;;5093840;28;20405;-72
2022/05/20 10:35:45;;;;;;;3.57;2.40;;;;;;;;;;5094077;28;20446;-72
2022/05/20 10:38:32;;;;;;;3.73;1.90;;;;;;;;;;5093682;28;20434;-73
2022/05/20 10:41:01;;;;;;;2.90;2.20;;;;;;;;;;5093933;28;20223;-73
2022/05/20 10:48:34;;;;;;;2.60;1.77;;;;;;;;;;5093911;28;20457;-72
2022/05/20 10:49:15;;;;;;;2.70;2.50;;;;;;;;;;5093451;28;20563;-72
2022/05/20 10:51:54;;;;;;;3.23;2.40;;;;;;;;;;5093811;28;20188;-72
2022/05/20 10:54:35;;;;;;;7.73;2.40;;;;;;;;;;5093770;28;20202;-72
2022/05/20 10:57:08;;;;;;;4.00;2.10;;;;;;;;;;5093446;28;20192;-73
2022/05/20 10:59:44;;;;;;;3.93;2.13;;;;;;;;;;5093599;28;20490;-73
2022/05/20 11:02:20;;;;;;;3.00;2.20;;;;;;;;;;5093393;28;20438;-72
2022/05/20 11:04:58;;;;;;;4.33;2.23;;;;;;;;;;5093402;28;20438;-72
2022/05/20 11:07:30;;;;;;;3.47;2.27;;;;;;;;;;5093641;28;20429;-73
2022/05/20 11:10:05;;;;;;;3.43;2.20;;;;;;;;;;5093567;28;20596;-73
2022/05/20 11:12:38;;;;;;;2.40;2.20;;;;;;;;;;5093294;28;20196;-73
2022/05/20 11:15:16;;;;;;;2.60;2.40;;;;;;;;;;5093609;28;20923;-73
2022/05/20 11:17:57;;;;;;;2.50;2.13;;;;;;;;;;5093572;28;20904;-73
2022/05/20 11:20:34;;;;;;;6.77;2.60;;;;;;;;;;5096585;28;20538;-73
2022/05/20 11:23:18;;;;;;;2.30;2.10;;;;;;;;;;5097543;28;20947;-73
2022/05/20 11:25:52;;;;;;;3.03;2.73;;;;;;;;;;5097764;28;20446;-73
2022/05/20 11:28:26;;;;;;;12.43;2.90;;;;;;;;;;5097699;28;20625;-73
2022/05/20 11:30:59;;;;;;;2.63;2.17;;;;;;;;;;5097216;28;20477;-73
2022/05/20 11:33:34;;;;;;;2.67;2.47;;;;;;;;;;5097305;28;20441;-73
2022/05/20 11:36:15;;;;;;;2.40;2.20;;;;;;;;;;5097533;28;20808;-73
2022/05/20 11:39:03;;;;;;;3.07;2.77;;;;;;;;;;5097424;28;20433;-72
2022/05/20 11:41:35;;;;;;;3.23;2.60;;;;;;;;;;5092281;28;20446;-73
2022/05/20 11:44:20;;;;;;;4.33;2.70;;;;;;;;;;5097380;28;20441;-73
2022/05/20 11:47:07;;;;;;;2.83;2.40;;;;;;;;;;5097001;28;20434;-73
2022/05/20 11:49:50;;;;;;;2.37;2.17;;;;;;;;;;5097195;28;20462;-73
2022/05/20 11:52:25;;;;;;;3.33;1.87;;;;;;;;;;5097195;28;20440;-73
2022/05/20 11:54:53;;;;;;;5.50;2.50;;;;;;;;;;5097180;28;20810;-73
2022/05/20 11:57:23;;;;;;;3.57;2.43;;;;;;;;;;5097060;28;20792;-72
2022/05/20 11:59:53;;;;;;;2.80;2.33;;;;;;;;;;5096554;28;20492;-73
2022/05/20 12:02:21;;;;;;;5.60;2.50;;;;;;;;;;5096997;28;20453;-75
2022/05/20 12:04:49;;;;;;;2.83;2.40;;;;;;;;;;5096949;28;20457;-75
2022/05/20 12:07:18;;;;;;;4.07;2.50;;;;;;;;;;5096924;28;20446;-75
2022/05/20 12:09:47;;;;;;;3.30;2.40;;;;;;;;;;5096517;28;20502;-75
2022/05/20 12:12:17;;;;;;;3.03;2.67;;;;;;;;;;5096459;28;20449;-76
2022/05/20 12:15:00;;;;;;;4.20;2.80;;;;;;;;;;5096808;28;20450;-75
2022/05/20 12:17:31;;;;;;;5.50;2.70;;;;;;;;;;5096666;28;20450;-75
2022/05/20 12:25:39;;;;;;;3.87;3.10;;;;;;;;;;5096317;28;20414;-75
2022/05/20 12:28:08;;;;;;;4.03;2.60;;;;;;;;;;5096519;28;20454;-75
2022/05/20 12:30:43;;;;;;;2.83;2.63;;;;;;;;;;5095957;28;20462;-75
2022/05/20 12:33:23;;;;;;;3.83;2.70;;;;;;;;;;5096396;28;20450;-75
2022/05/20 12:36:09;;;;;;;5.30;3.33;;;;;;;;;;5096342;28;20447;-74
2022/05/20 12:38:36;;;;;;;6.03;3.07;;;;;;;;;;5096291;28;20453;-75
2022/05/20 12:41:14;;;;;;;2.80;2.53;;;;;;;;;;5096097;28;20490;-75
2022/05/20 12:43:43;;;;;;;4.20;2.90;;;;;;;;;;5095920;28;20430;-75
2022/05/20 12:46:12;;;;;;;3.70;3.30;;;;;;;;;;5096153;28;20454;-75
2022/05/20 12:48:39;;;;;;;3.17;2.87;;;;;;;;;;5096127;28;20815;-75
2022/05/20 12:51:08;;;;;;;3.40;3.10;;;;;;;;;;5096011;28;20477;-75
2022/05/20 12:53:36;;;;;;;4.00;3.60;;;;;;;;;;5096009;28;20552;-75
2022/05/20 12:56:05;;;;;;;5.33;2.80;;;;;;;;;;5095952;28;20451;-75
2022/05/20 12:58:33;;;;;;;5.47;3.57;;;;;;;;;;5095954;28;20430;-75
2022/05/20 13:01:02;;;;;;;3.97;3.20;;;;;;;;;;5095696;28;20980;-75
2022/05/20 13:03:31;;;;;;;3.30;3.00;;;;;;;;;;5095526;28;20450;-75
2022/05/20 13:06:00;;;;;;;3.50;3.20;;;;;;;;;;5095806;28;20834;-75
2022/05/20 13:08:28;;;;;;;7.00;3.30;;;;;;;;;;5095407;28;20466;-75
2022/05/20 13:10:56;;;;;;;3.23;2.93;;;;;;;;;;5095629;28;20479;-75
2022/05/20 13:13:25;;;;;;;4.43;3.07;;;;;;;;;;5095598;28;20948;-74
2022/05/20 13:15:56;;;;;;;5.90;3.20;;;;;;;;;;5095577;28;20455;-74
2022/05/20 13:18:25;;;;;;;8.30;3.50;;;;;;;;;;5095531;28;20433;-75
2022/05/20 13:20:53;;;;;;;3.33;3.07;;;;;;;;;;5095331;28;20852;-75
2022/05/20 13:23:21;;;;;;;6.63;3.23;;;;;;;;;;5094989;28;20463;-75
2022/05/20 13:25:48;;;;;;;4.10;2.63;;;;;;;;;;5095356;28;20473;-74
2022/05/20 13:28:22;;;;;;;10.97;4.37;;;;;;;;;;5095329;28;20456;-75
2022/05/20 13:30:50;;;;;;;3.47;2.80;;;;;;;;;;5095235;28;20470;-75
2022/05/20 13:33:17;;;;;;;9.17;3.50;;;;;;;;;;5094935;28;20454;-75
2022/05/20 13:35:47;;;;;;;5.03;3.03;;;;;;;;;;5095185;28;20453;-75
2022/05/20 13:38:14;;;;;;;3.50;3.03;;;;;;;;;;5095147;28;20485;-75
2022/05/20 13:40:42;;;;;;;4.70;4.20;;;;;;;;;;5094954;28;20991;-75
2022/05/20 13:43:11;;;;;;;4.80;3.23;;;;;;;;;;5094310;28;20461;-75
2022/05/20 13:51:11;;;;;;;5.53;4.10;;;;;;;;;;5094606;28;20649;-75
2022/05/20 13:53:40;;;;;;;6.57;4.70;;;;;;;;;;5094880;28;21045;-75
2022/05/20 13:56:07;;;;;;;4.50;4.10;;;;;;;;;;5095134;28;20455;-76
2022/05/20 13:58:36;;;;;;;3.20;2.90;;;;;;;;;;5094558;28;20439;-75
2022/05/20 14:01:05;;;;;;;4.77;3.43;;;;;;;;;;5094549;28;20854;-75
2022/05/20 14:03:34;;;;;;;7.03;3.10;;;;;;;;;;5094917;28;20454;-75
2022/05/20 14:06:03;;;;;;;4.63;3.13;;;;;;;;;;5094361;28;20525;-75
2022/05/20 14:08:32;;;;;;;5.83;4.30;;;;;;;;;;5094593;28;20450;-75
2022/05/20 14:11:03;;;;;;;4.43;2.87;;;;;;;;;;5094464;28;20475;-75
2022/05/20 14:13:36;;;;;;;4.00;3.40;;;;;;;;;;5094571;28;20554;-75
2022/05/20 14:16:08;;;;;;;9.10;5.50;;;;;;;;;;5094438;28;20449;-75
2022/05/20 14:18:37;;;;;;;6.20;3.80;;;;;;;;;;5094452;28;20438;-75
2022/05/20 14:21:06;;;;;;;6.00;3.97;;;;;;;;;;5094263;28;20512;-75
2022/05/20 14:23:37;;;;;;;4.90;4.10;;;;;;;;;;5093978;28;20470;-75
2022/05/20 14:26:11;;;;;;;5.60;3.70;;;;;;;;;;5094298;28;20431;-75
2022/05/20 14:28:42;;;;;;;9.53;3.17;;;;;;;;;;5094303;28;20471;-75
2022/05/20 14:31:16;;;;;;;5.23;3.30;;;;;;;;;;5094577;28;20964;-75
2022/05/20 14:33:48;;;;;;;5.90;2.87;;;;;;;;;;5093913;28;20436;-75
2022/05/20 14:36:15;;;;;;;4.23;3.30;;;;;;;;;;5093821;28;20443;-75
2022/05/20 14:38:44;;;;;;;11.00;3.10;;;;;;;;;;5094076;28;20815;-75
2022/05/20 14:41:17;;;;;;;4.17;2.80;;;;;;;;;;5093945;28;20998;-75
2022/05/20 14:43:50;;;;;;;5.47;3.53;;;;;;;;;;5093605;28;20442;-75
2022/05/20 14:47:14;;;;;;;6.43;2.90;;;;;;;;;;5093862;28;20506;-75
2022/05/20 14:49:13;;;;;;;5.87;3.70;;;;;;;;;;5093233;28;20540;-74
2022/05/20 14:51:44;;;;;;;12.13;3.63;;;;;;;;;;5093931;28;20443;-75
2022/05/20 14:54:15;;;;;;;6.33;3.33;;;;;;;;;;5093611;28;20443;-76
2022/05/20 14:56:43;;;;;;;3.53;2.80;;;;;;;;;;5093694;28;20470;-75
2022/05/20 14:59:11;;;;;;;3.93;3.50;;;;;;;;;;5093532;28;20461;-74
2022/05/20 15:01:40;;;;;;;3.47;3.17;;;;;;;;;;5093536;28;20835;-75
2022/05/20 15:04:07;;;;;;;3.50;2.90;;;;;;;;;;5093583;28;20462;-74
2022/05/20 15:06:37;;;;;;;4.60;3.17;;;;;;;;;;5093675;28;20455;-75
2022/05/20 15:09:04;;;;;;;5.20;4.70;;;;;;;;;;5093511;28;20940;-75
2022/05/20 15:11:34;;;;;;;4.97;3.37;;;;;;;;;;5093312;28;20455;-75
2022/05/20 15:14:02;;;;;;;3.60;3.30;;;;;;;;;;5093602;28;20454;-75
2022/05/20 15:16:30;;;;;;;3.97;3.20;;;;;;;;;;5093174;28;20457;-74
2022/05/20 15:18:57;;;;;;;4.67;3.27;;;;;;;;;;5093268;28;20435;-75
2022/05/20 15:21:26;;;;;;;3.17;2.73;;;;;;;;;;5093357;28;21003;-75
2022/05/20 15:23:59;;;;;;;5.83;3.87;;;;;;;;;;5093178;28;20498;-75
2022/05/20 15:26:27;;;;;;;7.90;3.37;;;;;;;;;;5093168;28;20438;-75
2022/05/20 15:28:55;;;;;;;4.67;3.20;;;;;;;;;;5093400;28;20837;-75
2022/05/20 15:36:56;;;;;;;5.77;3.20;;;;;;;;;;5093128;28;20450;-75
2022/05/20 15:39:26;;;;;;;6.13;3.97;;;;;;;;;;5093131;28;20470;-74
2022/05/20 15:41:53;;;;;;;4.00;3.70;;;;;;;;;;5092938;28;20474;-74